Time;durP1;ratioP1;P1;durP2;ratioP2;P2;SDS_P1;SDS_P2;PMS_P1;PMS_P2;Temp;Humidity;BMP_temperature;BMP_pressure;BME280_temperature;BME280_humidity;BME280_pressure;Samples;Min_cycle;Max_cycle;Signal;HPM_P1;HPM_P2
2022/04/27 00:00:58;;;;;;;12.27;8.73;;;6.70;99.90;;;;;;5125016;28;20047;-73
2022/04/27 00:03:31;;;;;;;17.63;11.70;;;6.70;99.90;;;;;;5138410;28;20062;-73
2022/04/27 00:06:04;;;;;;;14.88;9.68;;;6.60;99.90;;;;;;5124354;28;20426;-73
2022/04/27 00:08:37;;;;;;;15.77;10.80;;;6.60;99.90;;;;;;5123767;28;20047;-74
2022/04/27 00:11:10;;;;;;;15.80;10.05;;;6.60;99.90;;;;;;5139994;28;20055;-72
2022/04/27 00:13:42;;;;;;;17.15;10.85;;;6.50;99.90;;;;;;5127556;28;20731;-74
2022/04/27 00:16:15;;;;;;;16.38;11.13;;;6.50;99.90;;;;;;5121283;28;20051;-73
2022/04/27 00:18:48;;;;;;;21.93;11.17;;;6.50;99.90;;;;;;5126886;28;20043;-73
2022/04/27 00:21:21;;;;;;;14.93;10.65;;;6.50;99.90;;;;;;5128609;28;20050;-72
2022/04/27 00:23:53;;;;;;;19.95;12.82;;;6.40;99.90;;;;;;5114560;28;20107;-75
2022/04/27 00:26:25;;;;;;;18.00;12.10;;;6.40;99.90;;;;;;5127875;28;20043;-73
2022/04/27 00:28:58;;;;;;;22.23;13.05;;;6.20;99.90;;;;;;5120937;28;20043;-74
2022/04/27 00:31:31;;;;;;;22.20;12.82;;;6.30;99.90;;;;;;5120232;28;20503;-74
2022/04/27 00:34:04;;;;;;;22.23;14.43;;;6.20;99.90;;;;;;5127437;28;20051;-73
2022/04/27 00:36:36;;;;;;;20.58;12.25;;;6.20;99.90;;;;;;5125870;28;20047;-73
2022/04/27 00:39:09;;;;;;;17.83;12.48;;;6.10;99.90;;;;;;5130991;28;20035;-74
2022/04/27 00:41:58;;;;;;;18.67;12.20;;;6.10;99.90;;;;;;5132790;28;20057;-73
2022/04/27 00:44:32;;;;;;;17.10;11.93;;;6.10;99.90;;;;;;5132370;28;20054;-74
2022/04/27 00:47:05;;;;;;;;;;;6.10;99.90;;;;;;5148777;28;20057;-74
2022/04/27 00:49:50;;;;;;;20.70;12.20;;;6.10;99.90;;;;;;5131614;28;19948;-74
2022/04/27 00:52:22;;;;;;;17.05;11.18;;;6.10;99.90;;;;;;5132491;28;20050;-74
2022/04/27 00:54:55;;;;;;;17.73;11.75;;;6.10;99.90;;;;;;5146066;28;20051;-73
2022/04/27 00:57:27;;;;;;;22.55;13.55;;;6.10;99.90;;;;;;5107883;28;20043;-73
2022/04/27 01:00:00;;;;;;;17.52;11.50;;;6.10;99.90;;;;;;5120639;28;20047;-74
2022/04/27 01:02:32;;;;;;;18.20;12.33;;;6.00;99.90;;;;;;5104775;28;20047;-74
2022/04/27 01:05:09;;;;;;;17.35;11.43;;;6.00;99.90;;;;;;5113703;28;20038;-74
2022/04/27 01:07:42;;;;;;;16.33;11.43;;;6.00;99.90;;;;;;5107229;28;20066;-74
2022/04/27 01:10:15;;;;;;;15.30;10.30;;;6.00;99.90;;;;;;5130835;28;20058;-73
2022/04/27 01:12:48;;;;;;;15.00;10.82;;;5.90;99.90;;;;;;5110637;28;20070;-73
2022/04/27 01:15:32;;;;;;;14.93;11.10;;;5.90;99.90;;;;;;5106913;28;20062;-75
2022/04/27 01:18:06;;;;;;;21.93;11.87;;;5.90;99.90;;;;;;5121142;28;20475;-73
2022/04/27 01:20:50;;;;;;;16.45;11.32;;;5.80;99.90;;;;;;5138512;28;20306;-74
2022/04/27 01:23:24;;;;;;;17.30;11.60;;;5.80;99.90;;;;;;5140684;28;20043;-73
2022/04/27 01:26:05;;;;;;;19.95;11.75;;;5.80;99.90;;;;;;5121884;28;20053;-72
2022/04/27 01:28:38;;;;;;;14.57;10.32;;;5.90;99.90;;;;;;5126985;28;20074;-73
2022/04/27 01:31:12;;;;;;;17.33;10.35;;;5.90;99.90;;;;;;5125900;28;20050;-72
2022/04/27 01:33:44;;;;;;;14.23;10.40;;;5.80;99.90;;;;;;5124857;28;20043;-74
2022/04/27 01:36:16;;;;;;;15.27;11.30;;;5.80;99.90;;;;;;5122568;28;20035;-73
2022/04/27 01:38:49;;;;;;;17.30;11.85;;;5.80;99.90;;;;;;5123456;28;20414;-73
2022/04/27 01:41:22;;;;;;;16.63;11.25;;;5.80;99.90;;;;;;5127050;28;20055;-72
2022/04/27 01:43:55;;;;;;;17.52;11.60;;;5.80;99.90;;;;;;5117020;28;20078;-73
2022/04/27 01:46:28;;;;;;;17.67;11.73;;;5.80;99.90;;;;;;5121469;28;20122;-74
2022/04/27 01:49:01;;;;;;;18.98;12.65;;;5.80;99.90;;;;;;5120360;28;20046;-74
2022/04/27 01:54:24;;;;;;;21.08;13.45;;;5.80;99.90;;;;;;5137652;28;20048;-73
2022/04/27 01:56:56;;;;;;;22.48;13.73;;;5.70;99.90;;;;;;5126822;28;20065;-73
2022/04/27 01:59:29;;;;;;;20.73;12.75;;;5.70;99.90;;;;;;5106176;28;20047;-72
2022/04/27 02:02:01;;;;;;;22.20;14.70;;;5.70;99.90;;;;;;5122407;28;20057;-75
2022/04/27 02:04:34;;;;;;;25.25;15.15;;;5.80;99.90;;;;;;5120573;28;20053;-73
2022/04/27 02:07:08;;;;;;;20.73;13.60;;;5.80;99.90;;;;;;5132594;28;20061;-73
2022/04/27 02:09:42;;;;;;;21.58;13.02;;;5.80;99.90;;;;;;5119513;28;20047;-74
2022/04/27 02:12:15;;;;;;;21.02;13.38;;;5.80;99.90;;;;;;5132392;28;20053;-73
2022/04/27 02:14:49;;;;;;;25.88;16.10;;;5.90;99.90;;;;;;5098373;28;20059;-74
2022/04/27 02:17:22;;;;;;;23.65;15.20;;;5.90;99.90;;;;;;5117668;28;20039;-74
2022/04/27 02:19:55;;;;;;;20.87;12.50;;;5.90;99.90;;;;;;5140915;28;20145;-74
2022/04/27 02:22:27;;;;;;;20.30;13.15;;;5.90;99.90;;;;;;5137097;28;20061;-72
2022/04/27 02:25:01;;;;;;;20.08;11.85;;;6.00;99.90;;;;;;5116984;28;20046;-72
2022/04/27 02:27:33;;;;;;;17.23;12.10;;;6.00;99.90;;;;;;5125049;28;20071;-73
2022/04/27 02:30:07;;;;;;;18.08;12.27;;;6.10;99.90;;;;;;5138570;28;20729;-73
2022/04/27 02:32:40;;;;;;;14.82;10.45;;;6.10;99.90;;;;;;5134776;28;20054;-74
2022/04/27 02:35:14;;;;;;;17.70;12.25;;;6.10;99.90;;;;;;5117398;28;20391;-71
2022/04/27 02:37:46;;;;;;;15.02;10.05;;;6.10;99.90;;;;;;5117817;28;20035;-74
2022/04/27 02:40:19;;;;;;;16.93;11.20;;;6.10;99.90;;;;;;5129541;28;20410;-74
2022/04/27 02:42:56;;;;;;;16.75;11.40;;;6.20;99.90;;;;;;5133391;28;20038;-74
2022/04/27 02:45:28;;;;;;;18.67;12.53;;;6.20;99.90;;;;;;5110813;28;20245;-73
2022/04/27 02:48:01;;;;;;;12.90;10.00;;;6.20;99.90;;;;;;5132614;28;20093;-73
2022/04/27 02:53:26;;;;;;;15.70;10.95;;;6.30;99.90;;;;;;5123798;28;20407;-73
2022/04/27 02:55:59;;;;;;;15.40;10.77;;;6.20;99.90;;;;;;5119782;28;20054;-74
2022/04/27 02:58:32;;;;;;;15.75;10.55;;;6.30;99.90;;;;;;5121896;28;20053;-73
2022/04/27 03:01:04;;;;;;;16.30;11.00;;;6.30;99.90;;;;;;5121114;28;20043;-73
2022/04/27 03:03:37;;;;;;;17.48;12.05;;;6.30;99.90;;;;;;5115756;28;21453;-72
2022/04/27 03:06:10;;;;;;;16.67;11.30;;;6.30;99.90;;;;;;5121782;28;20090;-73
2022/04/27 03:08:42;;;;;;;15.27;10.50;;;6.20;99.90;;;;;;5145971;28;20055;-73
2022/04/27 03:11:15;;;;;;;16.58;11.55;;;6.20;99.90;;;;;;5130346;28;20065;-73
2022/04/27 03:14:28;;;;;;;14.13;10.02;;;6.20;99.90;;;;;;5113321;28;21813;-73
2022/04/27 03:17:01;;;;;;;20.52;11.93;;;6.30;99.90;;;;;;5121232;28;20051;-74
2022/04/27 03:19:34;;;;;;;16.48;11.18;;;6.30;99.90;;;;;;5126120;28;20051;-72
2022/04/27 03:22:08;;;;;;;22.38;14.10;;;6.30;99.90;;;;;;5097722;28;20328;-73
2022/04/27 03:24:41;;;;;;;17.83;12.40;;;6.30;99.90;;;;;;5130978;28;20503;-73
2022/04/27 03:27:18;;;;;;;26.67;14.85;;;6.20;99.90;;;;;;5121745;28;20539;-72
2022/04/27 03:29:52;;;;;;;26.45;14.98;;;6.30;99.90;;;;;;5130028;28;20042;-72
2022/04/27 03:32:25;;;;;;;19.07;11.87;;;6.20;99.90;;;;;;5123049;28;20447;-73
2022/04/27 03:35:04;;;;;;;25.42;15.05;;;6.20;99.90;;;;;;5137028;28;20133;-72
2022/04/27 03:37:38;;;;;;;22.40;15.15;;;6.30;99.90;;;;;;5135543;28;20677;-73
2022/04/27 03:40:11;;;;;;;21.02;13.43;;;6.30;99.90;;;;;;5118176;28;20525;-73
2022/04/27 03:42:44;;;;;;;25.80;14.60;;;6.30;99.90;;;;;;5124843;28;20055;-73
2022/04/27 03:45:19;;;;;;;25.23;14.80;;;6.40;99.90;;;;;;5124030;28;20039;-72
2022/04/27 03:47:54;;;;;;;22.83;14.10;;;6.50;99.90;;;;;;5109618;28;20176;-73
2022/04/27 03:50:28;;;;;;;25.75;15.70;;;6.60;99.90;;;;;;5127226;28;20745;-73
2022/04/27 03:53:00;;;;;;;27.83;16.13;;;6.50;99.90;;;;;;5138996;28;20519;-73
2022/04/27 03:55:35;;;;;;;24.73;15.43;;;6.60;99.90;;;;;;5150710;28;20106;-73
2022/04/27 03:58:08;;;;;;;25.20;15.65;;;6.60;99.90;;;;;;5127832;28;20065;-73
2022/04/27 04:00:41;;;;;;;31.52;17.00;;;6.60;99.90;;;;;;5113789;28;20043;-73
2022/04/27 04:03:23;;;;;;;28.63;17.55;;;6.60;99.90;;;;;;5105813;28;20039;-72
2022/04/27 04:05:58;;;;;;;30.05;17.70;;;6.70;99.90;;;;;;5118307;28;20047;-72
2022/04/27 04:08:41;;;;;;;33.47;18.85;;;6.70;99.90;;;;;;5115970;28;20074;-72
2022/04/27 04:11:14;;;;;;;26.98;16.10;;;6.70;99.90;;;;;;5083627;28;20057;-74
2022/04/27 04:14:01;;;;;;;30.35;17.73;;;6.80;99.90;;;;;;5113960;28;20054;-73
2022/04/27 04:16:54;;;;;;;31.42;17.88;;;6.80;99.90;;;;;;5100676;28;20606;-72
2022/04/27 04:19:36;;;;;;;36.30;18.58;;;6.80;99.90;;;;;;5103725;28;20051;-73
2022/04/27 04:22:46;;;;;;;30.60;17.30;;;6.90;99.90;;;;;;5104696;28;20051;-73
2022/04/27 04:28:30;;;;;;;29.48;17.73;;;6.90;99.90;;;;;;5114861;28;20996;-74
2022/04/27 04:31:04;;;;;;;33.90;19.85;;;6.90;99.90;;;;;;5085629;28;20051;-73
2022/04/27 04:33:50;;;;;;;38.35;19.75;;;6.90;99.90;;;;;;5096575;28;20043;-73
2022/04/27 04:36:23;;;;;;;38.63;21.08;;;6.90;99.90;;;;;;5104072;28;20042;-74
2022/04/27 04:38:57;;;;;;;36.67;20.48;;;6.90;99.90;;;;;;5107735;28;20074;-73
2022/04/27 04:41:32;;;;;;;34.75;19.50;;;7.00;99.90;;;;;;5122055;28;20043;-73
2022/04/27 04:44:05;;;;;;;34.28;20.55;;;7.00;99.90;;;;;;5097573;28;20053;-73
2022/04/27 04:46:55;;;;;;;36.80;20.30;;;7.00;99.90;;;;;;5100552;28;20491;-74
2022/04/27 04:49:47;;;;;;;33.22;19.33;;;7.10;99.90;;;;;;5106530;28;20046;-73
2022/04/27 04:52:39;;;;;;;31.45;18.33;;;7.10;99.90;;;;;;5100735;28;20590;-74
2022/04/27 04:55:47;;;;;;;39.90;21.13;;;7.10;99.90;;;;;;5094482;28;20588;-73
2022/04/27 04:58:56;;;;;;;29.23;19.15;;;7.20;99.90;;;;;;5090531;28;20092;-74
2022/04/27 05:01:48;;;;;;;37.25;20.83;;;7.20;99.90;;;;;;5088338;28;20050;-75
2022/04/27 05:04:41;;;;;;;32.53;19.05;;;7.20;99.90;;;;;;5092410;28;20051;-75
2022/04/27 05:07:33;;;;;;;32.55;18.45;;;7.20;99.90;;;;;;5089565;28;20050;-75
2022/04/27 05:10:41;;;;;;;46.13;19.77;;;7.20;99.90;;;;;;5091135;28;20101;-75
2022/04/27 05:13:24;;;;;;;30.35;17.90;;;7.30;99.90;;;;;;5087013;28;20458;-74
2022/04/27 05:16:22;;;;;;;38.95;19.60;;;7.30;99.90;;;;;;5086578;28;20046;-75
2022/04/27 05:19:03;;;;;;;39.70;21.15;;;7.30;99.90;;;;;;5099441;28;20047;-74
2022/04/27 05:21:55;;;;;;;40.50;20.65;;;7.30;99.90;;;;;;5099001;28;20063;-74
2022/04/27 05:24:46;;;;;;;32.63;19.67;;;7.30;99.90;;;;;;5118998;28;20073;-74
2022/04/27 05:27:27;;;;;;;32.60;19.77;;;7.30;99.90;;;;;;5112731;28;20542;-74
2022/04/27 05:33:26;;;;;;;28.67;17.73;;;7.50;99.90;;;;;;5108169;28;20046;-74
2022/04/27 05:36:05;;;;;;;30.73;18.52;;;7.50;99.90;;;;;;5098809;28;20928;-74
2022/04/27 05:39:07;;;;;;;29.60;19.08;;;7.60;99.90;;;;;;5093338;28;20055;-75
2022/04/27 05:42:02;;;;;;;32.45;19.40;;;7.60;99.90;;;;;;5108355;28;20502;-75
2022/04/27 05:44:48;;;;;;;37.08;18.80;;;7.70;99.90;;;;;;5089967;28;20459;-75
2022/04/27 05:47:27;;;;;;;31.75;19.27;;;7.70;99.90;;;;;;5125123;28;20169;-75
2022/04/27 05:50:26;;;;;;;33.05;19.55;;;7.80;99.90;;;;;;5092854;28;20062;-77
2022/04/27 05:53:15;;;;;;;32.17;17.77;;;7.80;99.90;;;;;;5075245;28;20050;-74
2022/04/27 05:55:53;;;;;;;30.52;18.17;;;7.90;99.90;;;;;;5124362;28;20047;-74
2022/04/27 05:58:44;;;;;;;29.23;17.85;;;8.00;99.90;;;;;;5108968;28;20047;-75
2022/04/27 06:01:23;;;;;;;28.40;17.88;;;8.00;99.90;;;;;;5110943;28;20046;-75
2022/04/27 06:04:04;;;;;;;34.85;18.55;;;8.00;99.90;;;;;;5086263;28;20077;-75
2022/04/27 06:06:40;;;;;;;32.83;19.75;;;8.10;99.90;;;;;;5108042;28;20042;-75
2022/04/27 06:09:15;;;;;;;30.58;17.55;;;8.10;99.90;;;;;;5106141;28;20054;-75
2022/04/27 06:11:54;;;;;;;29.77;16.95;;;8.10;99.90;;;;;;5116597;28;20054;-76
2022/04/27 06:14:45;;;;;;;31.60;17.95;;;8.10;99.90;;;;;;5121505;28;20058;-75
2022/04/27 06:17:31;;;;;;;;;;;8.10;99.90;;;;;;5100777;28;20050;-75
2022/04/27 06:20:07;;;;;;;32.17;18.52;;;8.10;99.90;;;;;;5100681;28;19929;-76
2022/04/27 06:22:40;;;;;;;;;;;8.20;99.90;;;;;;5117677;28;20054;-76
2022/04/27 06:25:13;;;;;;;30.45;17.00;;;8.20;99.90;;;;;;5096117;28;19926;-74
2022/04/27 06:27:52;;;;;;;30.27;18.63;;;8.30;99.90;;;;;;5114652;28;20509;-75
2022/04/27 06:30:25;;;;;;;37.13;20.23;;;8.30;99.90;;;;;;5077929;28;20055;-75
2022/04/27 06:32:57;;;;;;;29.67;16.17;;;8.40;99.90;;;;;;5120069;28;20093;-74
2022/04/27 06:35:30;;;;;;;33.53;18.63;;;8.50;99.90;;;;;;5108877;28;20135;-75
2022/04/27 06:38:08;;;;;;;31.58;18.85;;;8.50;99.90;;;;;;5084857;28;21516;-75
2022/04/27 06:41:08;;;;;;;35.13;19.85;;;8.60;99.90;;;;;;5099262;28;20062;-74
2022/04/27 06:44:00;;;;;;;34.63;20.10;;;8.60;99.90;;;;;;5101710;28;20097;-76
2022/04/27 06:46:51;;;;;;;35.13;20.67;;;8.50;99.90;;;;;;5110858;28;20051;-75
2022/04/27 06:49:42;;;;;;;31.05;18.42;;;8.50;99.90;;;;;;5104353;28;20057;-75
2022/04/27 06:52:43;;;;;;;37.08;19.92;;;8.60;99.90;;;;;;5109689;28;20055;-75
2022/04/27 06:55:45;;;;;;;33.88;17.77;;;8.70;99.90;;;;;;5091563;28;20069;-75
2022/04/27 06:58:18;;;;;;;35.75;19.38;;;8.70;99.90;;;;;;5107481;28;20050;-75
2022/04/27 07:01:04;;;;;;;35.65;18.35;;;8.80;99.90;;;;;;5074428;28;20058;-76
2022/04/27 07:03:38;;;;;;;26.73;17.20;;;8.90;99.90;;;;;;5112092;28;21076;-77
2022/04/27 07:06:12;;;;;;;27.90;16.15;;;8.90;99.90;;;;;;5106845;28;22214;-76
2022/04/27 07:08:44;;;;;;;24.67;16.00;;;8.90;99.90;;;;;;5105720;28;20050;-75
2022/04/27 07:11:17;;;;;;;23.42;14.13;;;9.00;99.90;;;;;;5096416;28;20527;-75
2022/04/27 07:13:49;;;;;;;21.33;13.80;;;9.10;99.90;;;;;;5106642;28;20550;-76
2022/04/27 07:16:21;;;;;;;23.92;15.98;;;9.10;99.90;;;;;;5107386;28;20042;-76
2022/04/27 07:18:55;;;;;;;23.60;15.15;;;9.20;99.90;;;;;;5106277;28;20047;-75
2022/04/27 07:21:27;;;;;;;26.10;16.40;;;9.20;99.90;;;;;;5122147;28;20050;-75
2022/04/27 07:24:02;;;;;;;20.33;13.73;;;9.40;99.90;;;;;;5094952;28;20082;-76
2022/04/27 07:26:35;;;;;;;22.20;13.57;;;9.40;99.90;;;;;;5111560;28;20053;-77
2022/04/27 07:29:09;;;;;;;20.08;14.20;;;9.50;99.90;;;;;;5108862;28;20642;-76
2022/04/27 07:31:41;;;;;;;23.00;14.85;;;9.40;99.90;;;;;;5107412;28;20054;-77
2022/04/27 07:34:14;;;;;;;20.75;14.48;;;9.50;99.90;;;;;;5105911;28;20046;-76
2022/04/27 07:36:46;;;;;;;20.50;14.30;;;9.60;99.90;;;;;;5111231;28;20054;-75
2022/04/27 07:39:19;;;;;;;18.90;12.75;;;9.70;99.90;;;;;;5109173;28;20039;-76
2022/04/27 07:41:51;;;;;;;20.80;13.90;;;9.80;99.90;;;;;;5121607;28;20387;-76
2022/04/27 07:44:24;;;;;;;21.63;14.98;;;9.80;99.90;;;;;;5107731;28;20042;-76
2022/04/27 07:46:56;;;;;;;22.10;13.57;;;9.90;99.90;;;;;;5105989;28;20406;-77
2022/04/27 07:49:29;;;;;;;21.77;13.13;;;9.90;99.90;;;;;;5107216;28;20074;-76
2022/04/27 07:52:02;;;;;;;20.15;12.98;;;10.00;99.90;;;;;;5124125;28;20062;-75
2022/04/27 07:54:35;;;;;;;20.52;13.95;;;10.00;99.90;;;;;;5107437;28;20720;-75
2022/04/27 07:57:07;;;;;;;18.80;12.80;;;10.00;99.90;;;;;;5107146;28;20070;-75
2022/04/27 07:59:40;;;;;;;19.17;12.00;;;10.00;99.90;;;;;;5089567;28;20062;-76
2022/04/27 08:02:12;;;;;;;18.42;11.68;;;10.20;99.90;;;;;;5116761;28;20058;-75
2022/04/27 08:04:45;;;;;;;17.55;12.30;;;10.30;99.90;;;;;;5107075;28;20054;-76
2022/04/27 08:07:18;;;;;;;20.52;12.27;;;10.50;99.20;;;;;;5109064;28;20066;-75
2022/04/27 08:09:50;;;;;;;17.13;11.45;;;10.40;98.30;;;;;;5107607;28;20061;-76
2022/04/27 08:12:23;;;;;;;17.80;12.35;;;10.50;99.90;;;;;;5108835;28;20054;-76
2022/04/27 08:14:55;;;;;;;16.27;11.23;;;10.60;99.80;;;;;;5099704;28;20126;-76
2022/04/27 08:17:28;;;;;;;17.23;10.52;;;10.70;97.90;;;;;;5111551;28;20062;-76
2022/04/27 08:22:52;;;;;;;14.07;9.20;;;10.80;96.40;;;;;;5104938;28;20050;-76
2022/04/27 08:25:24;;;;;;;12.73;9.40;;;10.90;94.20;;;;;;5104638;28;20038;-76
2022/04/27 08:27:56;;;;;;;13.57;8.98;;;10.90;94.90;;;;;;5106126;28;20066;-76
2022/04/27 08:30:29;;;;;;;10.15;7.55;;;11.00;95.20;;;;;;5121251;28;20109;-75
2022/04/27 08:33:02;;;;;;;12.02;8.57;;;11.00;93.80;;;;;;5106251;28;20561;-76
2022/04/27 08:35:36;;;;;;;12.93;9.40;;;11.00;93.30;;;;;;5123277;28;20089;-77
2022/04/27 08:38:09;;;;;;;11.25;8.50;;;11.00;92.80;;;;;;5109831;28;21125;-77
2022/04/27 08:40:44;;;;;;;14.23;9.00;;;11.10;93.50;;;;;;5109607;28;20046;-76
2022/04/27 08:43:16;;;;;;;11.63;8.73;;;11.10;92.70;;;;;;5098212;28;20038;-77
2022/04/27 08:45:50;;;;;;;12.18;8.32;;;11.20;93.80;;;;;;5122799;28;20057;-77
2022/04/27 08:48:23;;;;;;;10.45;8.00;;;11.40;93.60;;;;;;5114623;28;20047;-76
2022/04/27 08:50:55;;;;;;;9.25;6.65;;;11.50;92.70;;;;;;5102975;28;20043;-76
2022/04/27 08:53:28;;;;;;;9.13;7.43;;;11.40;91.50;;;;;;5109949;28;20143;-76
2022/04/27 08:56:01;;;;;;;11.00;7.43;;;11.40;90.60;;;;;;5110964;28;20050;-76
2022/04/27 08:58:33;;;;;;;7.78;6.50;;;11.60;89.90;;;;;;5104771;28;20305;-76
2022/04/27 09:01:16;;;;;;;11.02;7.50;;;11.90;90.80;;;;;;5110254;28;20046;-76
2022/04/27 09:03:48;;;;;;;10.02;7.60;;;12.00;90.10;;;;;;5109371;28;20458;-77
2022/04/27 09:06:22;;;;;;;12.82;7.88;;;12.10;90.50;;;;;;5106225;28;20055;-77
2022/04/27 09:08:55;;;;;;;11.18;8.18;;;12.10;89.80;;;;;;5092149;28;20051;-77
2022/04/27 09:11:29;;;;;;;10.07;7.00;;;12.10;88.40;;;;;;5109025;28;20055;-77
2022/04/27 09:14:03;;;;;;;;;;;12.00;88.00;;;;;;5082329;28;20050;-76
2022/04/27 09:22:45;;;;;;;11.52;6.95;;;12.10;83.50;;;;;;5113710;28;20047;-76
2022/04/27 09:25:38;;;;;;;9.57;6.40;;;12.10;80.80;;;;;;5109634;28;20562;-76
2022/04/27 09:28:30;;;;;;;7.82;5.07;;;12.30;82.60;;;;;;4423684;28;9999966;-76
2022/04/27 09:31:04;;;;;;;9.43;5.78;;;12.60;82.50;;;;;;5083932;28;20062;-76
2022/04/27 09:33:38;;;;;;;8.88;5.90;;;12.30;81.00;;;;;;5103541;28;20526;-76
2022/04/27 09:36:23;;;;;;;8.93;5.68;;;12.40;83.20;;;;;;5101431;28;20061;-75
2022/04/27 09:38:57;;;;;;;7.03;5.32;;;12.40;81.00;;;;;;5099859;28;20081;-76
2022/04/27 09:41:39;;;;;;;7.85;5.60;;;12.30;81.60;;;;;;5103609;28;20069;-77
2022/04/27 09:44:27;;;;;;;8.02;6.38;;;12.40;81.30;;;;;;5106165;28;20062;-76
2022/04/27 09:47:04;;;;;;;9.63;6.72;;;12.30;78.90;;;;;;5113827;28;20047;-75
2022/04/27 09:49:41;;;;;;;8.82;6.60;;;12.20;81.40;;;;;;5106520;28;20058;-76
2022/04/27 09:52:15;;;;;;;13.55;8.00;;;12.20;83.50;;;;;;5100279;28;20521;-76
2022/04/27 09:54:49;;;;;;;10.65;7.68;;;12.30;83.60;;;;;;5103809;28;20066;-77
2022/04/27 09:57:23;;;;;;;11.73;7.55;;;12.30;84.20;;;;;;5108657;28;20980;-75
2022/04/27 09:59:56;;;;;;;10.95;7.70;;;12.20;84.40;;;;;;5107301;28;20062;-77
2022/04/27 10:02:30;;;;;;;12.18;7.15;;;12.30;85.00;;;;;;5102173;28;20039;-76
2022/04/27 10:05:04;;;;;;;9.27;6.35;;;12.30;84.80;;;;;;5108611;28;20058;-76
2022/04/27 10:07:37;;;;;;;10.40;6.70;;;12.40;85.40;;;;;;5102466;28;22293;-76
2022/04/27 10:10:10;;;;;;;9.88;7.40;;;12.40;84.30;;;;;;5094418;28;20070;-76
2022/04/27 10:12:43;;;;;;;11.13;7.20;;;12.40;84.10;;;;;;5105685;28;20050;-77
2022/04/27 10:15:16;;;;;;;12.13;7.20;;;12.40;83.40;;;;;;5099503;28;20051;-77
2022/04/27 10:17:49;;;;;;;8.63;6.57;;;12.40;84.00;;;;;;5102247;28;20055;-77
2022/04/27 10:20:33;;;;;;;9.07;6.45;;;12.50;84.70;;;;;;5114914;28;20046;-77
2022/04/27 10:23:28;;;;;;;16.80;7.53;;;12.60;82.80;;;;;;5118158;28;20054;-76
2022/04/27 10:26:28;;;;;;;10.75;7.88;;;12.60;80.60;;;;;;5112819;28;20047;-76
2022/04/27 10:29:05;;;;;;;13.18;8.02;;;12.70;82.60;;;;;;5101495;28;20686;-75
2022/04/27 10:31:42;;;;;;;10.77;7.25;;;12.70;82.40;;;;;;5118023;28;20055;-76
2022/04/27 10:34:22;;;;;;;12.65;8.88;;;12.80;83.40;;;;;;5102643;28;20094;-75
2022/04/27 10:36:58;;;;;;;14.05;9.65;;;12.80;83.80;;;;;;5118066;28;20050;-75
2022/04/27 10:39:34;;;;;;;13.93;9.73;;;12.80;84.60;;;;;;5107299;28;20046;-75
2022/04/27 10:42:10;;;;;;;15.63;10.35;;;12.80;85.40;;;;;;5099537;28;20051;-77
2022/04/27 10:44:53;;;;;;;15.00;9.45;;;12.70;84.80;;;;;;5126998;28;20070;-74
2022/04/27 10:47:37;;;;;;;13.55;9.23;;;12.60;85.30;;;;;;5128162;28;20039;-76
2022/04/27 10:50:25;;;;;;;12.18;8.85;;;12.70;85.70;;;;;;5131333;28;20047;-75
2022/04/27 10:53:18;;;;;;;12.23;8.75;;;12.60;84.20;;;;;;5130463;28;20139;-76
2022/04/27 10:56:00;;;;;;;10.57;8.60;;;12.60;84.40;;;;;;5126897;28;20903;-76
2022/04/27 10:58:34;;;;;;;12.15;7.35;;;12.60;84.50;;;;;;5125154;28;20051;-76
2022/04/27 11:01:11;;;;;;;11.45;8.80;;;12.50;82.80;;;;;;5144252;28;20034;-77
2022/04/27 11:03:53;;;;;;;11.00;8.73;;;12.50;82.70;;;;;;5126318;28;20050;-76
2022/04/27 11:06:30;;;;;;;13.10;9.70;;;12.40;83.40;;;;;;5138967;28;20039;-77
2022/04/27 11:09:16;;;;;;;10.85;8.35;;;12.40;84.70;;;;;;5128972;28;20058;-76
2022/04/27 11:11:54;;;;;;;12.38;7.88;;;12.60;85.50;;;;;;5127336;28;20057;-77
2022/04/27 11:14:34;;;;;;;14.43;8.70;;;12.70;86.00;;;;;;5126233;28;20071;-77
2022/04/27 11:17:07;;;;;;;11.50;8.52;;;12.70;85.40;;;;;;5107965;28;21082;-77
2022/04/27 11:19:41;;;;;;;11.80;8.77;;;12.80;85.50;;;;;;5108255;28;20795;-76
2022/04/27 11:22:15;;;;;;;12.43;9.32;;;13.00;85.00;;;;;;5119647;28;20522;-76
2022/04/27 11:24:49;;;;;;;;;;;12.90;83.60;;;;;;5117486;28;20053;-76
2022/04/27 11:27:29;;;;;;;15.05;10.43;;;12.70;83.30;;;;;;5094774;28;19925;-75
2022/04/27 11:30:04;;;;;;;13.82;9.50;;;12.60;85.30;;;;;;5115774;28;20980;-75
2022/04/27 11:32:38;;;;;;;14.50;10.77;;;12.70;86.00;;;;;;5112176;28;20051;-74
2022/04/27 11:35:11;;;;;;;18.25;11.45;;;12.60;86.00;;;;;;5109629;28;20058;-77
2022/04/27 11:37:44;;;;;;;16.08;11.55;;;12.50;86.80;;;;;;5113041;28;20430;-74
2022/04/27 11:40:18;;;;;;;19.00;10.90;;;12.50;87.60;;;;;;5106326;28;20047;-75
2022/04/27 11:42:50;;;;;;;17.23;10.73;;;12.50;88.00;;;;;;5120559;28;20047;-75
2022/04/27 11:45:26;;;;;;;16.53;12.03;;;12.40;87.90;;;;;;5122273;28;20051;-75
2022/04/27 11:48:01;;;;;;;18.10;12.20;;;12.30;88.20;;;;;;5136164;28;20051;-76
2022/04/27 11:50:36;;;;;;;16.85;11.15;;;12.10;88.30;;;;;;5120382;28;20054;-76
2022/04/27 11:53:13;;;;;;;18.38;12.77;;;12.10;89.40;;;;;;5125171;28;20046;-76
2022/04/27 11:55:50;;;;;;;21.38;12.75;;;12.00;89.00;;;;;;5113840;28;20254;-76
2022/04/27 11:58:24;;;;;;;18.17;11.25;;;12.10;89.80;;;;;;5124501;28;20051;-77
2022/04/27 12:01:01;;;;;;;19.38;12.32;;;12.10;90.40;;;;;;5131885;28;20667;-76
2022/04/27 12:03:41;;;;;;;18.55;11.98;;;12.10;90.70;;;;;;5124243;28;20059;-77
2022/04/27 12:06:21;;;;;;;18.60;12.55;;;12.20;90.50;;;;;;5118213;28;20055;-76
2022/04/27 12:09:00;;;;;;;18.80;12.80;;;12.30;90.20;;;;;;5130170;28;20055;-76
2022/04/27 12:11:34;;;;;;;17.65;12.75;;;12.40;89.30;;;;;;5118911;28;20091;-76
2022/04/27 12:14:07;;;;;;;19.40;12.95;;;12.50;89.90;;;;;;5122030;28;20058;-76
2022/04/27 12:16:44;;;;;;;19.67;12.98;;;12.60;90.10;;;;;;5123523;28;20050;-76
2022/04/27 12:19:27;;;;;;;20.88;12.60;;;12.70;90.10;;;;;;5126662;28;20046;-77
2022/04/27 12:22:15;;;;;;;17.93;12.80;;;12.70;88.30;;;;;;5129051;28;20046;-76
2022/04/27 12:24:48;;;;;;;18.85;11.48;;;12.80;89.40;;;;;;5142404;28;20289;-77
2022/04/27 12:27:21;;;;;;;19.42;13.35;;;12.70;89.40;;;;;;5128638;28;20051;-75
2022/04/27 12:30:07;;;;;;;15.82;11.52;;;12.90;87.80;;;;;;5129972;28;20130;-76
2022/04/27 12:32:40;;;;;;;16.10;10.45;;;13.30;85.50;;;;;;5145002;28;20058;-76
2022/04/27 12:38:11;;;;;;;15.05;9.38;;;13.90;83.60;;;;;;5119399;28;20051;-75
2022/04/27 12:40:44;;;;;;;14.55;9.30;;;14.00;81.00;;;;;;4769752;28;9999965;-77
2022/04/27 12:43:17;;;;;;;12.65;9.40;;;14.30;79.90;;;;;;5112475;28;20875;-77
2022/04/27 12:46:09;;;;;;;13.07;8.02;;;14.70;77.50;;;;;;5117746;28;20042;-76
2022/04/27 12:48:42;;;;;;;10.60;7.43;;;14.90;74.10;;;;;;5134633;28;20042;-76
2022/04/27 12:51:28;;;;;;;14.13;9.80;;;15.70;75.50;;;;;;5113038;28;20054;-77
2022/04/27 12:54:01;;;;;;;14.45;8.73;;;16.30;73.50;;;;;;5121747;28;20522;-77
2022/04/27 12:56:35;;;;;;;9.32;7.50;;;16.90;72.60;;;;;;5116437;28;22151;-76
2022/04/27 12:59:13;;;;;;;11.13;7.65;;;16.90;71.70;;;;;;5117134;28;20051;-76
2022/04/27 13:01:45;;;;;;;9.98;7.30;;;16.80;73.60;;;;;;5120807;28;20137;-76
2022/04/27 13:04:18;;;;;;;10.17;7.77;;;16.90;71.90;;;;;;5126196;28;20049;-77
2022/04/27 13:06:51;;;;;;;10.98;7.65;;;17.20;69.80;;;;;;5134122;28;20569;-76
2022/04/27 13:12:18;;;;;;;11.35;6.90;;;17.10;69.70;;;;;;5124301;28;20046;-77
2022/04/27 13:14:50;;;;;;;9.73;7.90;;;17.60;68.00;;;;;;5125838;28;20046;-76
2022/04/27 13:17:23;;;;;;;8.18;6.28;;;18.00;67.40;;;;;;5138885;28;20069;-77
2022/04/27 13:19:57;;;;;;;7.20;6.07;;;18.30;66.20;;;;;;5124893;28;20063;-76
2022/04/27 13:22:30;;;;;;;8.75;6.07;;;18.50;65.90;;;;;;5127871;28;20054;-77
2022/04/27 13:25:04;;;;;;;7.18;6.38;;;18.80;65.50;;;;;;5126068;28;20058;-77
2022/04/27 13:27:37;;;;;;;10.20;6.40;;;18.80;62.20;;;;;;5141444;28;20129;-76
2022/04/27 13:30:11;;;;;;;7.68;5.18;;;18.70;63.10;;;;;;5108449;28;20146;-76
2022/04/27 13:32:44;;;;;;;7.50;6.43;;;19.00;63.80;;;;;;5118849;28;20065;-76
2022/04/27 13:35:18;;;;;;;;;;;19.00;60.30;;;;;;5123635;28;20057;-78
2022/04/27 13:37:51;;;;;;;5.90;4.60;;;19.10;60.00;;;;;;5117396;28;20006;-76
2022/04/27 13:40:23;;;;;;;9.37;4.33;;;19.60;61.70;;;;;;5116621;28;20054;-77
2022/04/27 13:42:56;;;;;;;6.78;5.82;;;20.10;58.40;;;;;;5119125;28;20046;-77
2022/04/27 13:45:30;;;;;;;8.18;5.70;;;20.20;58.00;;;;;;5123422;28;20058;-76
2022/04/27 13:48:03;;;;;;;5.25;4.55;;;20.20;58.10;;;;;;5115340;28;20058;-77
2022/04/27 13:50:36;;;;;;;7.40;6.60;;;20.00;58.20;;;;;;5123976;28;20934;-78
2022/04/27 13:53:09;;;;;;;10.80;8.63;;;20.40;58.10;;;;;;5123755;28;20051;-78
2022/04/27 13:55:42;;;;;;;7.05;4.90;;;20.70;57.50;;;;;;5136417;28;20321;-77